sensor_id;sensor_type;location;lat;lon;timestamp;P1;durP1;ratioP1;P2;durP2;ratioP2
67074;SDS011;53990;50.334;18.640;2022-08-19T00:01:25;14.20;;;12.40;;
67074;SDS011;53990;50.334;18.640;2022-08-19T00:03:52;15.90;;;12.20;;
67074;SDS011;53990;50.334;18.640;2022-08-19T00:06:19;18.60;;;12.20;;
67074;SDS011;53990;50.334;18.640;2022-08-19T00:08:45;14.70;;;12.10;;
67074;SDS011;53990;50.334;18.640;2022-08-19T00:11:12;14.30;;;12.60;;
67074;SDS011;53990;50.334;18.640;2022-08-19T00:13:39;15.40;;;12.10;;
67074;SDS011;53990;50.334;18.640;2022-08-19T00:16:06;15.80;;;12.90;;
67074;SDS011;53990;50.334;18.640;2022-08-19T00:18:33;15.00;;;13.20;;
67074;SDS011;53990;50.334;18.640;2022-08-19T00:21:01;16.90;;;12.70;;
67074;SDS011;53990;50.334;18.640;2022-08-19T00:23:28;15.80;;;12.40;;
67074;SDS011;53990;50.334;18.640;2022-08-19T00:25:55;15.60;;;12.80;;
67074;SDS011;53990;50.334;18.640;2022-08-19T00:28:22;15.40;;;12.20;;
67074;SDS011;53990;50.334;18.640;2022-08-19T00:30:49;15.70;;;12.30;;
67074;SDS011;53990;50.334;18.640;2022-08-19T00:33:18;19.40;;;13.20;;
67074;SDS011;53990;50.334;18.640;2022-08-19T00:35:45;16.40;;;12.70;;
67074;SDS011;53990;50.334;18.640;2022-08-19T00:38:12;15.20;;;13.30;;
67074;SDS011;53990;50.334;18.640;2022-08-19T00:40:40;14.60;;;12.90;;
67074;SDS011;53990;50.334;18.640;2022-08-19T00:43:10;15.60;;;12.60;;
67074;SDS011;53990;50.334;18.640;2022-08-19T00:45:37;15.70;;;12.70;;
67074;SDS011;53990;50.334;18.640;2022-08-19T00:48:04;18.70;;;13.30;;
67074;SDS011;53990;50.334;18.640;2022-08-19T00:50:31;16.00;;;13.50;;
67074;SDS011;53990;50.334;18.640;2022-08-19T00:53:00;18.10;;;13.60;;
67074;SDS011;53990;50.334;18.640;2022-08-19T00:55:31;18.30;;;13.60;;
67074;SDS011;53990;50.334;18.640;2022-08-19T00:58:11;16.30;;;13.10;;
67074;SDS011;53990;50.334;18.640;2022-08-19T01:00:38;15.80;;;13.20;;
67074;SDS011;53990;50.334;18.640;2022-08-19T01:03:07;16.60;;;13.90;;
67074;SDS011;53990;50.334;18.640;2022-08-19T01:05:36;15.50;;;13.60;;
67074;SDS011;53990;50.334;18.640;2022-08-19T01:08:04;17.50;;;14.30;;
67074;SDS011;53990;50.334;18.640;2022-08-19T01:10:37;17.80;;;14.30;;
67074;SDS011;53990;50.334;18.640;2022-08-19T01:13:05;17.00;;;13.60;;
67074;SDS011;53990;50.334;18.640;2022-08-19T01:15:35;16.60;;;14.10;;
67074;SDS011;53990;50.334;18.640;2022-08-19T01:18:08;17.30;;;13.00;;
67074;SDS011;53990;50.334;18.640;2022-08-19T01:20:36;17.30;;;14.40;;
67074;SDS011;53990;50.334;18.640;2022-08-19T01:23:03;17.10;;;13.40;;
67074;SDS011;53990;50.334;18.640;2022-08-19T01:25:47;17.70;;;14.60;;
67074;SDS011;53990;50.334;18.640;2022-08-19T01:28:21;16.10;;;14.10;;
67074;SDS011;53990;50.334;18.640;2022-08-19T01:30:48;21.70;;;15.50;;
67074;SDS011;53990;50.334;18.640;2022-08-19T01:33:16;16.90;;;14.10;;
67074;SDS011;53990;50.334;18.640;2022-08-19T01:35:43;18.00;;;15.00;;
67074;SDS011;53990;50.334;18.640;2022-08-19T01:38:20;19.00;;;15.10;;
67074;SDS011;53990;50.334;18.640;2022-08-19T01:40:48;16.70;;;14.90;;
67074;SDS011;53990;50.334;18.640;2022-08-19T01:43:14;16.70;;;14.20;;
67074;SDS011;53990;50.334;18.640;2022-08-19T01:45:41;16.30;;;14.20;;
67074;SDS011;53990;50.334;18.640;2022-08-19T01:48:08;17.60;;;15.20;;
67074;SDS011;53990;50.334;18.640;2022-08-19T01:50:35;16.50;;;14.60;;
67074;SDS011;53990;50.334;18.640;2022-08-19T01:53:04;17.80;;;14.40;;
67074;SDS011;53990;50.334;18.640;2022-08-19T01:55:32;17.50;;;14.50;;
67074;SDS011;53990;50.334;18.640;2022-08-19T01:58:00;19.10;;;14.90;;
67074;SDS011;53990;50.334;18.640;2022-08-19T02:00:30;19.40;;;14.50;;
67074;SDS011;53990;50.334;18.640;2022-08-19T02:02:57;18.20;;;14.30;;
67074;SDS011;53990;50.334;18.640;2022-08-19T02:05:24;17.70;;;14.90;;
67074;SDS011;53990;50.334;18.640;2022-08-19T02:07:51;16.70;;;14.60;;
67074;SDS011;53990;50.334;18.640;2022-08-19T02:10:20;18.80;;;15.00;;
67074;SDS011;53990;50.334;18.640;2022-08-19T02:12:48;19.60;;;14.90;;
67074;SDS011;53990;50.334;18.640;2022-08-19T02:15:16;18.60;;;15.20;;
67074;SDS011;53990;50.334;18.640;2022-08-19T02:17:45;17.30;;;14.60;;
67074;SDS011;53990;50.334;18.640;2022-08-19T02:20:12;20.20;;;14.90;;
67074;SDS011;53990;50.334;18.640;2022-08-19T02:22:41;19.30;;;14.80;;
67074;SDS011;53990;50.334;18.640;2022-08-19T02:25:11;19.00;;;14.80;;
67074;SDS011;53990;50.334;18.640;2022-08-19T02:27:38;17.00;;;14.90;;
67074;SDS011;53990;50.334;18.640;2022-08-19T02:30:08;19.50;;;15.00;;
67074;SDS011;53990;50.334;18.640;2022-08-19T02:32:36;20.30;;;15.30;;
67074;SDS011;53990;50.334;18.640;2022-08-19T02:35:03;18.20;;;15.10;;
67074;SDS011;53990;50.334;18.640;2022-08-19T02:37:30;17.60;;;14.90;;
67074;SDS011;53990;50.334;18.640;2022-08-19T02:40:15;20.80;;;15.20;;
67074;SDS011;53990;50.334;18.640;2022-08-19T02:42:44;21.50;;;15.80;;
67074;SDS011;53990;50.334;18.640;2022-08-19T02:45:13;19.50;;;15.50;;
67074;SDS011;53990;50.334;18.640;2022-08-19T02:47:40;18.60;;;14.70;;
67074;SDS011;53990;50.334;18.640;2022-08-19T02:50:07;21.10;;;16.30;;
67074;SDS011;53990;50.334;18.640;2022-08-19T02:52:34;21.60;;;16.10;;
67074;SDS011;53990;50.334;18.640;2022-08-19T02:55:01;18.50;;;16.10;;
67074;SDS011;53990;50.334;18.640;2022-08-19T02:57:27;20.10;;;16.20;;
67074;SDS011;53990;50.334;18.640;2022-08-19T02:59:58;20.30;;;15.90;;
67074;SDS011;53990;50.334;18.640;2022-08-19T03:02:25;19.90;;;15.90;;
67074;SDS011;53990;50.334;18.640;2022-08-19T03:04:51;20.90;;;16.20;;
67074;SDS011;53990;50.334;18.640;2022-08-19T03:07:18;19.00;;;15.20;;
67074;SDS011;53990;50.334;18.640;2022-08-19T03:09:45;19.40;;;16.30;;
67074;SDS011;53990;50.334;18.640;2022-08-19T03:12:11;22.80;;;17.40;;
67074;SDS011;53990;50.334;18.640;2022-08-19T03:14:38;19.40;;;16.60;;
67074;SDS011;53990;50.334;18.640;2022-08-19T03:17:05;22.30;;;16.50;;
67074;SDS011;53990;50.334;18.640;2022-08-19T03:19:31;20.30;;;16.00;;
67074;SDS011;53990;50.334;18.640;2022-08-19T03:21:58;19.50;;;15.80;;
67074;SDS011;53990;50.334;18.640;2022-08-19T03:24:25;20.80;;;16.00;;
67074;SDS011;53990;50.334;18.640;2022-08-19T03:26:54;21.30;;;15.90;;
67074;SDS011;53990;50.334;18.640;2022-08-19T03:29:28;19.10;;;16.50;;
67074;SDS011;53990;50.334;18.640;2022-08-19T03:31:55;20.90;;;16.80;;
67074;SDS011;53990;50.334;18.640;2022-08-19T03:34:24;20.30;;;16.40;;
67074;SDS011;53990;50.334;18.640;2022-08-19T03:36:56;19.50;;;16.90;;
67074;SDS011;53990;50.334;18.640;2022-08-19T03:39:25;19.30;;;16.20;;
67074;SDS011;53990;50.334;18.640;2022-08-19T03:41:53;18.70;;;16.10;;
67074;SDS011;53990;50.334;18.640;2022-08-19T03:44:22;20.60;;;15.60;;
67074;SDS011;53990;50.334;18.640;2022-08-19T03:46:54;20.50;;;16.60;;
67074;SDS011;53990;50.334;18.640;2022-08-19T03:49:26;23.40;;;16.20;;
67074;SDS011;53990;50.334;18.640;2022-08-19T03:51:55;24.90;;;16.10;;
67074;SDS011;53990;50.334;18.640;2022-08-19T03:54:24;18.50;;;16.10;;
67074;SDS011;53990;50.334;18.640;2022-08-19T03:56:53;22.80;;;16.90;;
67074;SDS011;53990;50.334;18.640;2022-08-19T03:59:25;21.50;;;16.30;;
67074;SDS011;53990;50.334;18.640;2022-08-19T04:01:55;19.70;;;16.40;;
67074;SDS011;53990;50.334;18.640;2022-08-19T04:04:23;19.40;;;16.30;;
67074;SDS011;53990;50.334;18.640;2022-08-19T04:06:50;20.10;;;16.30;;
67074;SDS011;53990;50.334;18.640;2022-08-19T04:09:19;20.90;;;16.10;;
67074;SDS011;53990;50.334;18.640;2022-08-19T04:11:49;22.40;;;16.80;;
67074;SDS011;53990;50.334;18.640;2022-08-19T04:14:20;18.60;;;15.40;;
67074;SDS011;53990;50.334;18.640;2022-08-19T04:16:48;19.10;;;16.90;;
67074;SDS011;53990;50.334;18.640;2022-08-19T04:19:16;19.60;;;16.50;;
67074;SDS011;53990;50.334;18.640;2022-08-19T04:21:48;18.10;;;15.90;;
67074;SDS011;53990;50.334;18.640;2022-08-19T04:24:16;19.50;;;16.60;;
67074;SDS011;53990;50.334;18.640;2022-08-19T04:26:44;26.70;;;17.30;;
67074;SDS011;53990;50.334;18.640;2022-08-19T04:29:31;21.30;;;16.50;;
67074;SDS011;53990;50.334;18.640;2022-08-19T04:31:58;20.40;;;16.10;;
67074;SDS011;53990;50.334;18.640;2022-08-19T04:34:28;21.40;;;16.00;;
67074;SDS011;53990;50.334;18.640;2022-08-19T04:36:57;20.40;;;15.80;;
67074;SDS011;53990;50.334;18.640;2022-08-19T04:39:28;20.40;;;16.20;;
67074;SDS011;53990;50.334;18.640;2022-08-19T04:42:17;19.70;;;15.40;;
67074;SDS011;53990;50.334;18.640;2022-08-19T04:45:05;21.50;;;16.60;;
67074;SDS011;53990;50.334;18.640;2022-08-19T04:47:31;19.50;;;15.90;;
67074;SDS011;53990;50.334;18.640;2022-08-19T04:49:59;21.50;;;16.50;;
67074;SDS011;53990;50.334;18.640;2022-08-19T04:52:25;18.80;;;16.10;;
67074;SDS011;53990;50.334;18.640;2022-08-19T04:54:52;20.70;;;16.60;;
67074;SDS011;53990;50.334;18.640;2022-08-19T04:57:21;20.50;;;16.60;;
67074;SDS011;53990;50.334;18.640;2022-08-19T04:59:48;19.90;;;15.90;;
67074;SDS011;53990;50.334;18.640;2022-08-19T05:02:14;21.00;;;16.60;;
67074;SDS011;53990;50.334;18.640;2022-08-19T05:04:41;19.40;;;15.70;;
67074;SDS011;53990;50.334;18.640;2022-08-19T05:07:08;21.30;;;16.80;;
67074;SDS011;53990;50.334;18.640;2022-08-19T05:09:36;20.00;;;17.00;;
67074;SDS011;53990;50.334;18.640;2022-08-19T05:12:03;21.20;;;15.90;;
67074;SDS011;53990;50.334;18.640;2022-08-19T05:14:29;20.50;;;16.30;;
67074;SDS011;53990;50.334;18.640;2022-08-19T05:16:56;20.70;;;16.50;;
67074;SDS011;53990;50.334;18.640;2022-08-19T05:19:23;19.10;;;16.70;;
67074;SDS011;53990;50.334;18.640;2022-08-19T05:22:08;18.90;;;15.60;;
67074;SDS011;53990;50.334;18.640;2022-08-19T05:24:53;19.60;;;16.40;;
67074;SDS011;53990;50.334;18.640;2022-08-19T05:27:20;20.70;;;15.90;;
67074;SDS011;53990;50.334;18.640;2022-08-19T05:29:46;20.90;;;16.60;;
67074;SDS011;53990;50.334;18.640;2022-08-19T05:32:13;18.90;;;15.80;;
67074;SDS011;53990;50.334;18.640;2022-08-19T05:34:40;20.20;;;16.30;;
67074;SDS011;53990;50.334;18.640;2022-08-19T05:37:07;22.60;;;17.00;;
67074;SDS011;53990;50.334;18.640;2022-08-19T05:39:36;21.90;;;16.80;;
67074;SDS011;53990;50.334;18.640;2022-08-19T05:42:06;20.20;;;16.40;;
67074;SDS011;53990;50.334;18.640;2022-08-19T05:44:37;23.10;;;17.40;;
67074;SDS011;53990;50.334;18.640;2022-08-19T05:47:06;20.20;;;16.40;;
67074;SDS011;53990;50.334;18.640;2022-08-19T05:49:34;24.50;;;17.60;;
67074;SDS011;53990;50.334;18.640;2022-08-19T05:52:03;21.50;;;16.50;;
67074;SDS011;53990;50.334;18.640;2022-08-19T05:54:31;23.10;;;17.70;;
67074;SDS011;53990;50.334;18.640;2022-08-19T05:56:58;22.40;;;17.20;;
67074;SDS011;53990;50.334;18.640;2022-08-19T05:59:24;24.60;;;17.80;;
67074;SDS011;53990;50.334;18.640;2022-08-19T06:01:53;26.00;;;17.80;;
67074;SDS011;53990;50.334;18.640;2022-08-19T06:04:24;23.80;;;17.50;;
67074;SDS011;53990;50.334;18.640;2022-08-19T06:06:52;23.60;;;18.40;;
67074;SDS011;53990;50.334;18.640;2022-08-19T06:09:21;26.10;;;17.10;;
67074;SDS011;53990;50.334;18.640;2022-08-19T06:11:50;28.80;;;19.40;;
67074;SDS011;53990;50.334;18.640;2022-08-19T06:14:26;27.60;;;18.80;;
67074;SDS011;53990;50.334;18.640;2022-08-19T06:16:53;21.80;;;16.20;;
67074;SDS011;53990;50.334;18.640;2022-08-19T06:19:22;24.30;;;17.80;;
67074;SDS011;53990;50.334;18.640;2022-08-19T06:21:51;22.20;;;17.00;;
67074;SDS011;53990;50.334;18.640;2022-08-19T06:24:21;25.30;;;18.80;;
67074;SDS011;53990;50.334;18.640;2022-08-19T06:26:52;22.30;;;18.30;;
67074;SDS011;53990;50.334;18.640;2022-08-19T06:29:21;22.50;;;18.20;;
67074;SDS011;53990;50.334;18.640;2022-08-19T06:31:50;24.10;;;18.60;;
67074;SDS011;53990;50.334;18.640;2022-08-19T06:34:19;20.30;;;17.30;;
67074;SDS011;53990;50.334;18.640;2022-08-19T06:36:48;23.40;;;18.20;;
67074;SDS011;53990;50.334;18.640;2022-08-19T06:39:22;22.80;;;16.00;;
67074;SDS011;53990;50.334;18.640;2022-08-19T06:41:53;21.60;;;15.90;;
67074;SDS011;53990;50.334;18.640;2022-08-19T06:44:23;22.00;;;17.20;;
67074;SDS011;53990;50.334;18.640;2022-08-19T06:46:50;19.40;;;16.00;;
67074;SDS011;53990;50.334;18.640;2022-08-19T06:49:17;22.80;;;16.10;;
67074;SDS011;53990;50.334;18.640;2022-08-19T06:51:45;17.60;;;14.70;;
67074;SDS011;53990;50.334;18.640;2022-08-19T06:54:15;22.80;;;16.10;;
67074;SDS011;53990;50.334;18.640;2022-08-19T06:56:42;17.80;;;15.20;;
67074;SDS011;53990;50.334;18.640;2022-08-19T06:59:12;18.50;;;14.70;;
67074;SDS011;53990;50.334;18.640;2022-08-19T07:01:42;23.90;;;15.90;;
67074;SDS011;53990;50.334;18.640;2022-08-19T07:04:14;20.80;;;15.50;;
67074;SDS011;53990;50.334;18.640;2022-08-19T07:06:42;23.00;;;17.90;;
67074;SDS011;53990;50.334;18.640;2022-08-19T07:09:11;22.50;;;16.80;;
67074;SDS011;53990;50.334;18.640;2022-08-19T07:11:38;23.80;;;15.70;;
67074;SDS011;53990;50.334;18.640;2022-08-19T07:14:09;20.80;;;15.50;;
67074;SDS011;53990;50.334;18.640;2022-08-19T07:16:36;19.30;;;14.90;;
67074;SDS011;53990;50.334;18.640;2022-08-19T07:19:02;20.60;;;15.20;;
67074;SDS011;53990;50.334;18.640;2022-08-19T07:21:29;17.30;;;15.40;;
67074;SDS011;53990;50.334;18.640;2022-08-19T07:23:56;17.70;;;15.30;;
67074;SDS011;53990;50.334;18.640;2022-08-19T07:26:29;19.40;;;15.80;;
67074;SDS011;53990;50.334;18.640;2022-08-19T07:28:57;20.90;;;15.30;;
67074;SDS011;53990;50.334;18.640;2022-08-19T07:31:25;25.50;;;17.70;;
67074;SDS011;53990;50.334;18.640;2022-08-19T07:33:54;22.90;;;16.20;;
67074;SDS011;53990;50.334;18.640;2022-08-19T07:36:27;21.00;;;16.00;;
67074;SDS011;53990;50.334;18.640;2022-08-19T07:39:00;22.90;;;15.90;;
67074;SDS011;53990;50.334;18.640;2022-08-19T07:41:28;20.20;;;16.70;;
67074;SDS011;53990;50.334;18.640;2022-08-19T07:43:59;24.40;;;15.50;;
67074;SDS011;53990;50.334;18.640;2022-08-19T07:46:31;19.30;;;15.40;;
67074;SDS011;53990;50.334;18.640;2022-08-19T07:48:58;23.00;;;16.50;;
67074;SDS011;53990;50.334;18.640;2022-08-19T07:51:28;21.40;;;16.10;;
67074;SDS011;53990;50.334;18.640;2022-08-19T07:53:55;20.80;;;16.30;;
67074;SDS011;53990;50.334;18.640;2022-08-19T07:56:22;22.50;;;15.90;;
67074;SDS011;53990;50.334;18.640;2022-08-19T07:58:50;21.80;;;16.20;;
67074;SDS011;53990;50.334;18.640;2022-08-19T08:01:24;19.70;;;15.20;;
67074;SDS011;53990;50.334;18.640;2022-08-19T08:03:52;19.80;;;15.20;;
67074;SDS011;53990;50.334;18.640;2022-08-19T08:06:38;22.80;;;16.90;;
67074;SDS011;53990;50.334;18.640;2022-08-19T08:09:28;24.10;;;15.50;;
67074;SDS011;53990;50.334;18.640;2022-08-19T08:11:58;20.20;;;14.00;;
67074;SDS011;53990;50.334;18.640;2022-08-19T08:14:49;22.20;;;17.10;;
67074;SDS011;53990;50.334;18.640;2022-08-19T08:17:19;20.00;;;15.10;;
67074;SDS011;53990;50.334;18.640;2022-08-19T08:19:46;15.90;;;14.10;;
67074;SDS011;53990;50.334;18.640;2022-08-19T08:22:16;17.20;;;14.50;;
67074;SDS011;53990;50.334;18.640;2022-08-19T08:25:09;20.00;;;14.20;;
67074;SDS011;53990;50.334;18.640;2022-08-19T08:27:37;24.80;;;14.60;;
67074;SDS011;53990;50.334;18.640;2022-08-19T08:30:07;22.70;;;15.90;;
67074;SDS011;53990;50.334;18.640;2022-08-19T08:32:37;19.30;;;16.10;;
67074;SDS011;53990;50.334;18.640;2022-08-19T08:35:10;23.00;;;14.90;;
67074;SDS011;53990;50.334;18.640;2022-08-19T08:37:37;16.70;;;14.40;;
67074;SDS011;53990;50.334;18.640;2022-08-19T08:40:17;20.70;;;15.20;;
67074;SDS011;53990;50.334;18.640;2022-08-19T08:42:51;23.30;;;15.00;;
67074;SDS011;53990;50.334;18.640;2022-08-19T08:45:22;23.20;;;15.30;;
67074;SDS011;53990;50.334;18.640;2022-08-19T08:47:51;18.10;;;15.70;;
67074;SDS011;53990;50.334;18.640;2022-08-19T08:50:29;20.40;;;13.80;;
67074;SDS011;53990;50.334;18.640;2022-08-19T08:52:59;19.20;;;14.30;;
67074;SDS011;53990;50.334;18.640;2022-08-19T08:55:28;22.50;;;17.80;;
67074;SDS011;53990;50.334;18.640;2022-08-19T08:58:03;17.50;;;13.90;;
67074;SDS011;53990;50.334;18.640;2022-08-19T09:00:34;16.40;;;14.30;;
67074;SDS011;53990;50.334;18.640;2022-08-19T09:03:03;15.30;;;13.70;;
67074;SDS011;53990;50.334;18.640;2022-08-19T09:05:48;15.80;;;13.60;;
67074;SDS011;53990;50.334;18.640;2022-08-19T09:10:54;16.00;;;13.70;;
67074;SDS011;53990;50.334;18.640;2022-08-19T09:16:19;16.60;;;14.60;;
67074;SDS011;53990;50.334;18.640;2022-08-19T09:18:52;22.90;;;18.50;;
67074;SDS011;53990;50.334;18.640;2022-08-19T09:21:21;24.40;;;20.10;;
67074;SDS011;53990;50.334;18.640;2022-08-19T09:23:52;15.20;;;13.10;;
67074;SDS011;53990;50.334;18.640;2022-08-19T09:26:21;15.40;;;12.10;;
67074;SDS011;53990;50.334;18.640;2022-08-19T09:28:50;14.90;;;12.20;;
67074;SDS011;53990;50.334;18.640;2022-08-19T09:31:21;15.90;;;12.50;;
67074;SDS011;53990;50.334;18.640;2022-08-19T09:33:49;17.70;;;13.40;;
67074;SDS011;53990;50.334;18.640;2022-08-19T09:36:19;16.70;;;13.10;;
67074;SDS011;53990;50.334;18.640;2022-08-19T09:38:46;17.00;;;13.00;;
67074;SDS011;53990;50.334;18.640;2022-08-19T09:41:18;18.30;;;11.60;;
67074;SDS011;53990;50.334;18.640;2022-08-19T09:43:49;13.60;;;11.50;;
67074;SDS011;53990;50.334;18.640;2022-08-19T09:46:19;15.30;;;12.00;;
67074;SDS011;53990;50.334;18.640;2022-08-19T09:48:49;14.80;;;11.70;;
67074;SDS011;53990;50.334;18.640;2022-08-19T09:51:22;15.50;;;12.00;;
67074;SDS011;53990;50.334;18.640;2022-08-19T09:53:50;18.70;;;12.20;;
67074;SDS011;53990;50.334;18.640;2022-08-19T09:56:19;15.90;;;12.70;;
67074;SDS011;53990;50.334;18.640;2022-08-19T09:58:46;15.30;;;12.20;;
67074;SDS011;53990;50.334;18.640;2022-08-19T10:01:22;18.00;;;11.50;;
67074;SDS011;53990;50.334;18.640;2022-08-19T10:03:52;17.60;;;11.90;;
67074;SDS011;53990;50.334;18.640;2022-08-19T10:06:22;16.10;;;11.50;;
67074;SDS011;53990;50.334;18.640;2022-08-19T10:08:50;15.90;;;12.20;;
67074;SDS011;53990;50.334;18.640;2022-08-19T10:11:19;17.20;;;12.30;;
67074;SDS011;53990;50.334;18.640;2022-08-19T10:13:47;21.60;;;14.10;;
67074;SDS011;53990;50.334;18.640;2022-08-19T10:16:18;14.30;;;11.10;;
67074;SDS011;53990;50.334;18.640;2022-08-19T10:18:46;18.50;;;16.40;;
67074;SDS011;53990;50.334;18.640;2022-08-19T10:21:21;17.10;;;11.40;;
67074;SDS011;53990;50.334;18.640;2022-08-19T10:23:50;14.90;;;10.80;;
67074;SDS011;53990;50.334;18.640;2022-08-19T10:26:22;16.20;;;13.00;;
67074;SDS011;53990;50.334;18.640;2022-08-19T10:28:49;16.20;;;10.70;;
67074;SDS011;53990;50.334;18.640;2022-08-19T10:31:20;12.90;;;11.00;;
67074;SDS011;53990;50.334;18.640;2022-08-19T10:33:47;16.20;;;11.10;;
67074;SDS011;53990;50.334;18.640;2022-08-19T10:36:17;14.00;;;11.00;;
67074;SDS011;53990;50.334;18.640;2022-08-19T10:38:48;15.40;;;11.20;;
67074;SDS011;53990;50.334;18.640;2022-08-19T10:41:18;15.00;;;10.40;;
67074;SDS011;53990;50.334;18.640;2022-08-19T10:43:46;12.80;;;10.60;;
67074;SDS011;53990;50.334;18.640;2022-08-19T10:46:15;11.10;;;9.90;;
67074;SDS011;53990;50.334;18.640;2022-08-19T10:48:43;16.50;;;10.40;;
67074;SDS011;53990;50.334;18.640;2022-08-19T10:51:11;12.10;;;10.70;;
67074;SDS011;53990;50.334;18.640;2022-08-19T10:54:13;16.00;;;10.10;;
67074;SDS011;53990;50.334;18.640;2022-08-19T10:56:40;15.90;;;10.20;;
67074;SDS011;53990;50.334;18.640;2022-08-19T10:59:27;16.60;;;11.10;;
67074;SDS011;53990;50.334;18.640;2022-08-19T11:02:00;17.50;;;10.50;;
67074;SDS011;53990;50.334;18.640;2022-08-19T11:04:27;13.70;;;9.80;;
67074;SDS011;53990;50.334;18.640;2022-08-19T11:06:54;13.80;;;9.80;;
67074;SDS011;53990;50.334;18.640;2022-08-19T11:09:24;12.50;;;10.20;;
67074;SDS011;53990;50.334;18.640;2022-08-19T11:11:52;13.10;;;10.60;;
67074;SDS011;53990;50.334;18.640;2022-08-19T11:14:20;17.50;;;10.40;;
67074;SDS011;53990;50.334;18.640;2022-08-19T11:16:48;12.60;;;10.60;;
67074;SDS011;53990;50.334;18.640;2022-08-19T11:19:16;18.10;;;10.50;;
67074;SDS011;53990;50.334;18.640;2022-08-19T11:21:47;12.20;;;10.80;;
67074;SDS011;53990;50.334;18.640;2022-08-19T11:24:18;14.20;;;9.90;;
67074;SDS011;53990;50.334;18.640;2022-08-19T11:26:48;15.70;;;9.90;;
67074;SDS011;53990;50.334;18.640;2022-08-19T11:29:17;14.40;;;10.00;;
67074;SDS011;53990;50.334;18.640;2022-08-19T11:31:46;15.20;;;9.50;;
67074;SDS011;53990;50.334;18.640;2022-08-19T11:34:17;15.00;;;10.00;;
67074;SDS011;53990;50.334;18.640;2022-08-19T11:36:46;10.50;;;8.70;;
67074;SDS011;53990;50.334;18.640;2022-08-19T11:39:20;14.20;;;9.10;;
67074;SDS011;53990;50.334;18.640;2022-08-19T11:41:47;15.40;;;9.50;;
67074;SDS011;53990;50.334;18.640;2022-08-19T11:44:14;12.30;;;9.50;;
67074;SDS011;53990;50.334;18.640;2022-08-19T11:46:42;10.40;;;9.40;;
67074;SDS011;53990;50.334;18.640;2022-08-19T11:49:18;15.50;;;9.50;;
67074;SDS011;53990;50.334;18.640;2022-08-19T11:51:46;15.20;;;10.00;;
67074;SDS011;53990;50.334;18.640;2022-08-19T11:54:14;14.70;;;10.10;;
67074;SDS011;53990;50.334;18.640;2022-08-19T11:56:42;12.40;;;9.50;;
67074;SDS011;53990;50.334;18.640;2022-08-19T11:59:09;12.30;;;10.80;;
67074;SDS011;53990;50.334;18.640;2022-08-19T12:01:37;12.80;;;10.40;;
67074;SDS011;53990;50.334;18.640;2022-08-19T12:04:03;16.40;;;11.80;;
67074;SDS011;53990;50.334;18.640;2022-08-19T12:06:32;11.50;;;9.70;;
67074;SDS011;53990;50.334;18.640;2022-08-19T12:09:06;14.40;;;10.50;;
67074;SDS011;53990;50.334;18.640;2022-08-19T12:11:37;13.60;;;10.70;;
67074;SDS011;53990;50.334;18.640;2022-08-19T12:14:10;12.20;;;9.90;;
67074;SDS011;53990;50.334;18.640;2022-08-19T12:16:37;14.90;;;9.90;;
67074;SDS011;53990;50.334;18.640;2022-08-19T12:19:04;16.70;;;9.90;;
67074;SDS011;53990;50.334;18.640;2022-08-19T12:21:34;19.80;;;14.30;;
67074;SDS011;53990;50.334;18.640;2022-08-19T12:24:03;17.10;;;11.50;;
67074;SDS011;53990;50.334;18.640;2022-08-19T12:26:30;31.70;;;25.30;;
67074;SDS011;53990;50.334;18.640;2022-08-19T12:28:58;22.30;;;17.60;;
67074;SDS011;53990;50.334;18.640;2022-08-19T12:31:29;12.90;;;10.20;;
67074;SDS011;53990;50.334;18.640;2022-08-19T12:33:56;13.90;;;9.90;;
67074;SDS011;53990;50.334;18.640;2022-08-19T12:36:23;12.20;;;9.80;;
67074;SDS011;53990;50.334;18.640;2022-08-19T12:38:51;12.20;;;8.80;;
67074;SDS011;53990;50.334;18.640;2022-08-19T12:41:21;16.30;;;8.90;;
67074;SDS011;53990;50.334;18.640;2022-08-19T12:43:53;11.00;;;8.50;;
67074;SDS011;53990;50.334;18.640;2022-08-19T12:46:20;12.20;;;8.30;;
67074;SDS011;53990;50.334;18.640;2022-08-19T12:48:47;11.40;;;8.40;;
67074;SDS011;53990;50.334;18.640;2022-08-19T12:51:17;13.90;;;9.50;;
67074;SDS011;53990;50.334;18.640;2022-08-19T12:53:46;16.60;;;9.00;;
67074;SDS011;53990;50.334;18.640;2022-08-19T12:56:13;10.70;;;8.20;;
67074;SDS011;53990;50.334;18.640;2022-08-19T12:58:42;11.10;;;7.90;;
67074;SDS011;53990;50.334;18.640;2022-08-19T13:01:11;11.90;;;8.50;;
67074;SDS011;53990;50.334;18.640;2022-08-19T13:03:38;12.00;;;7.60;;
67074;SDS011;53990;50.334;18.640;2022-08-19T13:06:05;13.20;;;8.20;;
67074;SDS011;53990;50.334;18.640;2022-08-19T13:08:32;10.30;;;8.00;;
67074;SDS011;53990;50.334;18.640;2022-08-19T13:11:10;11.00;;;8.20;;
67074;SDS011;53990;50.334;18.640;2022-08-19T13:13:42;13.90;;;8.50;;
67074;SDS011;53990;50.334;18.640;2022-08-19T13:16:12;9.90;;;8.10;;
67074;SDS011;53990;50.334;18.640;2022-08-19T13:18:40;10.10;;;8.20;;
67074;SDS011;53990;50.334;18.640;2022-08-19T13:21:09;11.30;;;7.80;;
67074;SDS011;53990;50.334;18.640;2022-08-19T13:23:37;12.90;;;7.70;;
67074;SDS011;53990;50.334;18.640;2022-08-19T13:26:06;10.60;;;7.90;;
67074;SDS011;53990;50.334;18.640;2022-08-19T13:28:34;13.80;;;7.90;;
67074;SDS011;53990;50.334;18.640;2022-08-19T13:31:22;10.90;;;7.60;;
67074;SDS011;53990;50.334;18.640;2022-08-19T13:34:08;11.50;;;8.40;;
67074;SDS011;53990;50.334;18.640;2022-08-19T13:36:36;12.70;;;7.70;;
67074;SDS011;53990;50.334;18.640;2022-08-19T13:39:04;11.40;;;8.10;;
67074;SDS011;53990;50.334;18.640;2022-08-19T13:41:31;11.10;;;7.70;;
67074;SDS011;53990;50.334;18.640;2022-08-19T13:44:00;15.50;;;10.30;;
67074;SDS011;53990;50.334;18.640;2022-08-19T13:46:28;21.80;;;12.10;;
67074;SDS011;53990;50.334;18.640;2022-08-19T13:48:55;16.30;;;11.60;;
67074;SDS011;53990;50.334;18.640;2022-08-19T13:51:23;13.40;;;9.50;;
67074;SDS011;53990;50.334;18.640;2022-08-19T13:53:49;11.90;;;8.90;;
67074;SDS011;53990;50.334;18.640;2022-08-19T13:56:18;13.10;;;11.30;;
67074;SDS011;53990;50.334;18.640;2022-08-19T13:58:48;13.40;;;9.40;;
67074;SDS011;53990;50.334;18.640;2022-08-19T14:01:20;13.90;;;9.40;;
67074;SDS011;53990;50.334;18.640;2022-08-19T14:03:47;13.20;;;10.10;;
67074;SDS011;53990;50.334;18.640;2022-08-19T14:06:14;12.70;;;9.10;;
67074;SDS011;53990;50.334;18.640;2022-08-19T14:08:41;14.60;;;9.80;;
67074;SDS011;53990;50.334;18.640;2022-08-19T14:11:08;12.90;;;9.70;;
67074;SDS011;53990;50.334;18.640;2022-08-19T14:13:36;16.20;;;8.80;;
67074;SDS011;53990;50.334;18.640;2022-08-19T14:16:10;13.20;;;8.60;;
67074;SDS011;53990;50.334;18.640;2022-08-19T14:21:05;13.70;;;9.20;;
67074;SDS011;53990;50.334;18.640;2022-08-19T14:23:33;12.60;;;8.90;;
67074;SDS011;53990;50.334;18.640;2022-08-19T14:26:11;12.20;;;8.30;;
67074;SDS011;53990;50.334;18.640;2022-08-19T14:28:39;15.30;;;10.00;;
67074;SDS011;53990;50.334;18.640;2022-08-19T14:31:11;15.60;;;10.00;;
67074;SDS011;53990;50.334;18.640;2022-08-19T14:33:39;15.20;;;12.60;;